tititudorancea.com
Station Historical Data
Daily Summary for February 21, 2019 Units:  Metric    English   Both
« Previous Day
Next Day »
Daily Weekly Monthly Yearly Custom
  High: Low: Average:
Temperature: -17.8 °C 8.9 °C 15.3 °C
Dew Point: -17.8 °C 7.4 °C 9.1 °C
Humidity: Humidity % 43 % 69 %
Wind Speed: 0 km/h 1.9 km/h 16.6 km/h
Wind Gust: 0 km/h - -
Wind:- - SSW
Pressure: 0 hPa 1016.5 hPa -
Precipitation: 0 mm    
Historical Graphs
 
 
Ararat weather Find more about Weather in Ararat, AU


 



 


Tabular Data for February 21, 2019
Time Temperature Dew Point Pressure Wind Wind Speed Wind Gust Humidity Rainfall Rate (Hourly)
-17.8 °C -17.8 °C 0 hPa Calm     Humidity % 0 mm
00:04 12.7 °C 10.2 °C 1016.8 hPa South 9.7 km/h 6.1 km/h 85 % 0 mm
00:09 12.6 °C 10.2 °C 1016.8 hPa South 9.3 km/h 5.8 km/h 85 % 0 mm
00:14 12.6 °C 10.2 °C 1016.8 hPa South 9.3 km/h 7.6 km/h 85 % 0 mm
00:19 12.6 °C 10.2 °C 1016.8 hPa South 9.3 km/h 3.9 km/h 85 % 0 mm
00:24 12.7 °C 10.4 °C 1016.8 hPa South 11.3 km/h 11.9 km/h 86 % 0 mm
00:29 12.8 °C 10.5 °C 1016.8 hPa South 11.1 km/h 9.7 km/h 86 % 0 mm
00:34 12.9 °C 10.6 °C 1016.8 hPa South 14.8 km/h 9 km/h 86 % 0 mm
00:39 12.9 °C 10.4 °C 1016.8 hPa South 14.5 km/h 10.5 km/h 85 % 0 mm
00:44 12.9 °C 10.5 °C 1016.8 hPa South 11.1 km/h 7.1 km/h 85 % 0 mm
00:49 12.9 °C 10.4 °C 1016.8 hPa South 12.9 km/h 6.4 km/h 85 % 0 mm
00:54 12.8 °C 10.4 °C 1016.8 hPa SSW 20.4 km/h 12.4 km/h 85 % 0 mm
00:59 12.8 °C 10.3 °C 1016.8 hPa SSW 16.1 km/h 11.1 km/h 85 % 0 mm
01:04 12.7 °C 10.2 °C 1016.8 hPa South 11.1 km/h 7.1 km/h 85 % 0 mm
01:09 12.6 °C 10.2 °C 1016.8 hPa South 14.8 km/h 10.6 km/h 85 % 0 mm
01:14 12.5 °C 10.1 °C 1016.8 hPa SSW 16.7 km/h 10.6 km/h 85 % 0 mm
01:19 12.4 °C 9.9 °C 1016.8 hPa SSW 14.8 km/h 11.3 km/h 85 % 0 mm
01:24 12.3 °C 9.9 °C 1016.8 hPa SSW 16.7 km/h 9.5 km/h 85 % 0 mm
01:29 12.3 °C 9.8 °C 1016.8 hPa SSW 11.3 km/h 8.2 km/h 85 % 0 mm
01:34 12.2 °C 9.8 °C 1016.8 hPa SSW 9.7 km/h 6.4 km/h 85 % 0 mm
01:39 12.2 °C 9.7 °C 1016.8 hPa SSW 9.3 km/h 7.4 km/h 85 % 0 mm
01:44 12.1 °C 9.8 °C 1016.8 hPa SSW 8 km/h 6.1 km/h 86 % 0 mm
01:49 12 °C 9.7 °C 1016.8 hPa SSW 9.7 km/h 5.6 km/h 86 % 0 mm
01:54 11.9 °C 9.7 °C 1016.8 hPa SSW 11.1 km/h 8.5 km/h 86 % 0 mm
01:59 11.9 °C 9.6 °C 1016.5 hPa SSW 5.6 km/h 4.7 km/h 86 % 0 mm
02:04 11.8 °C 9.6 °C 1016.5 hPa North 9.3 km/h 3.7 km/h 86 % 0 mm
02:09 11.8 °C 9.5 °C 1016.5 hPa SSW 7.4 km/h 5.1 km/h 86 % 0 mm
02:14 11.7 °C 9.6 °C 1016.5 hPa North 9.3 km/h 2.6 km/h 87 % 0 mm
02:19 11.7 °C 9.6 °C 1016.5 hPa North 7.4 km/h 2.4 km/h 87 % 0 mm
02:24 11.7 °C 9.6 °C 1016.5 hPa North 8 km/h 5.3 km/h 87 % 0 mm
02:29 11.6 °C 9.5 °C 1016.5 hPa SSW 5.6 km/h 3.1 km/h 87 % 0 mm
02:34 11.5 °C 9.4 °C 1016.5 hPa SSW 6.4 km/h 3.7 km/h 87 % 0 mm
02:39 11.4 °C 9.3 °C 1016.5 hPa SSW 3.7 km/h 2.1 km/h 87 % 0 mm
02:44 11.2 °C 9.1 °C 1016.5 hPa SSW 3.7 km/h 0.6 km/h 87 % 0 mm
02:49 11.1 °C 9.1 °C 1016.5 hPa SSW 5.6 km/h 2.7 km/h 87 % 0 mm
02:54 10.9 °C 8.9 °C 1016.5 hPa SSW 3.7 km/h 0.3 km/h 87 % 0 mm
02:59 10.8 °C 8.9 °C 1016.5 hPa North 3.7 km/h 2.6 km/h 88 % 0 mm
03:04 10.7 °C 8.8 °C 1016.5 hPa SSW 5.6 km/h 2.9 km/h 88 % 0 mm
03:09 10.6 °C 8.7 °C 1016.5 hPa SSW 3.7 km/h 2.3 km/h 88 % 0 mm
03:14 10.5 °C 8.8 °C 1016.5 hPa SSW 3.7 km/h 0.8 km/h 89 % 0 mm
03:19 10.4 °C 8.7 °C 1016.5 hPa SSW 3.7 km/h 2.1 km/h 89 % 0 mm
03:24 10.3 °C 8.6 °C 1016.5 hPa SSW 5.6 km/h 1.8 km/h 89 % 0 mm
03:29 10.2 °C 8.5 °C 1016.5 hPa SSW 5.6 km/h 4.7 km/h 89 % 0 mm
03:34 10.1 °C 8.3 °C 1016.5 hPa SSW 5.6 km/h 2.6 km/h 89 % 0 mm
03:39 9.9 °C 8.2 °C 1016.5 hPa SSW 3.7 km/h 1.1 km/h 89 % 0 mm
03:44 9.8 °C 8.1 °C 1016.5 hPa SSW 3.7 km/h   89 % 0 mm
03:49 9.7 °C 8.1 °C 1016.5 hPa SSW 3.2 km/h 1.9 km/h 90 % 0 mm
03:54 9.5 °C 7.9 °C 1016.5 hPa North 3.7 km/h 1.1 km/h 90 % 0 mm
03:59 9.4 °C 7.9 °C 1016.5 hPa North 3.7 km/h 1.6 km/h 90 % 0 mm
04:04 9.4 °C 7.8 °C 1016.5 hPa SSW 3.7 km/h 1.9 km/h 90 % 0 mm
04:09 9.2 °C 7.7 °C 1016.5 hPa SSW 3.7 km/h 1.6 km/h 90 % 0 mm
04:14 9.1 °C 7.5 °C 1016.5 hPa SSW 3.7 km/h 2.9 km/h 90 % 0 mm
04:19 9 °C 7.4 °C 1016.5 hPa SSW 5.6 km/h 2.4 km/h 90 % 0 mm
04:24 8.9 °C 7.5 °C 1016.5 hPa SSW 1.9 km/h 1.6 km/h 91 % 0 mm
04:29 8.9 °C 7.6 °C 1016.5 hPa SSW 6.4 km/h 4.5 km/h 91 % 0 mm
04:34 9 °C 7.8 °C 1016.5 hPa SSW 5.6 km/h 4.5 km/h 92 % 0 mm
04:39 9.1 °C 7.9 °C 1016.5 hPa SSW 5.6 km/h 2.6 km/h 92 % 0 mm
04:44 9.1 °C 7.9 °C 1016.5 hPa SSW 5.6 km/h 4.2 km/h 92 % 0 mm
04:49 9.2 °C 7.9 °C 1016.8 hPa SSW 8 km/h 7.2 km/h 92 % 0 mm
04:54 9.2 °C 8 °C 1016.8 hPa SSW 5.6 km/h 3.7 km/h 92 % 0 mm
04:59 9.2 °C 8 °C 1016.8 hPa SSW 9.3 km/h 4.7 km/h 92 % 0 mm
05:04 9.2 °C 8 °C 1016.5 hPa SSW 7.4 km/h 3.7 km/h 92 % 0 mm
05:09 9.2 °C 8 °C 1016.5 hPa SSW 5.6 km/h 2.7 km/h 92 % 0 mm
05:14 9.2 °C 7.9 °C 1016.5 hPa SSW 5.6 km/h 2.9 km/h 92 % 0 mm
05:19 9.2 °C 8.1 °C 1016.5 hPa SSW 5.6 km/h 4.5 km/h 93 % 0 mm
05:24 9.2 °C 8.1 °C 1016.5 hPa SSW 5.6 km/h 3.7 km/h 93 % 0 mm
05:29 9.2 °C 8.1 °C 1016.5 hPa SSW 7.4 km/h 4.3 km/h 93 % 0 mm
05:34 9.2 °C 8.1 °C 1016.5 hPa North 9.3 km/h 5 km/h 93 % 0 mm
05:39 9.1 °C 8.1 °C 1016.8 hPa SSW 5.6 km/h 3.5 km/h 93 % 0 mm
05:44 9.1 °C 8 °C 1016.8 hPa North 5.6 km/h 3.2 km/h 93 % 0 mm
05:49 9 °C 7.9 °C 1016.8 hPa North 9.3 km/h 3.9 km/h 93 % 0 mm
05:54 9.1 °C 8 °C 1016.8 hPa SSW 11.1 km/h 6.8 km/h 93 % 0 mm
05:59 9.2 °C 8.2 °C 1016.8 hPa North 13 km/h 8.2 km/h 93 % 0 mm
06:04 9.2 °C 8.2 °C 1016.8 hPa SSW 8 km/h 5.6 km/h 93 % 0 mm
06:09 9.2 °C 8.2 °C 1016.8 hPa SSW 7.4 km/h 3.1 km/h 93 % 0 mm
06:14 9.2 °C 8.1 °C 1016.8 hPa SSW 9.3 km/h 6.6 km/h 93 % 0 mm
06:19 9.2 °C 8.1 °C 1016.8 hPa SSW 5.6 km/h 3.2 km/h 93 % 0 mm
06:24 9.1 °C 8.1 °C 1017.2 hPa SSW 3.7 km/h 2.4 km/h 93 % 0 mm
06:29 9.1 °C 8.2 °C 1017.2 hPa SSW 9.7 km/h 5.6 km/h 94 % 0 mm
06:34 9.3 °C 8.4 °C 1017.2 hPa SSW 5.6 km/h 4.3 km/h 94 % 0 mm
06:39 9.4 °C 8.5 °C 1017.2 hPa SSW 7.4 km/h 6.1 km/h 94 % 0 mm
06:44 9.7 °C 8.7 °C 1017.2 hPa SSW 7.4 km/h 5 km/h 94 % 0 mm
06:49 9.8 °C 8.9 °C 1017.2 hPa SSW 7.4 km/h 3.4 km/h 94 % 0 mm
06:54 9.9 °C 8.9 °C 1017.2 hPa SSW 11.1 km/h 3.7 km/h 94 % 0 mm
06:59 9.9 °C 8.9 °C 1017.2 hPa SSW 7.4 km/h 6 km/h 93 % 0 mm
07:04 9.9 °C 8.9 °C 1017.2 hPa SSW 13 km/h 4.8 km/h 93 % 0 mm
07:09 10 °C 8.9 °C 1017.2 hPa SSW 5.6 km/h 6.4 km/h 93 % 0 mm
07:14 10 °C 8.9 °C 1017.5 hPa South 12.9 km/h 6.3 km/h 93 % 0 mm
07:19 10.1 °C 9 °C 1017.5 hPa South 11.1 km/h 7.6 km/h 93 % 0 mm
07:24 10.1 °C 8.9 °C 1017.5 hPa South 11.1 km/h 6.8 km/h 92 % 0 mm
07:29 10.2 °C 8.9 °C 1017.5 hPa South 11.1 km/h 7.6 km/h 92 % 0 mm
07:34 10.3 °C 9.1 °C 1017.8 hPa South 11.1 km/h 7.6 km/h 92 % 0 mm
07:39 10.3 °C 9.1 °C 1017.8 hPa South 7.4 km/h 5.1 km/h 92 % 0 mm
07:44 10.4 °C 9.2 °C 1017.8 hPa North 5.6 km/h 3.9 km/h 92 % 0 mm
07:49 10.6 °C 9.2 °C 1018.2 hPa South 16.7 km/h 9.8 km/h 91 % 0 mm
07:54 10.7 °C 9.5 °C 1018.2 hPa South 12.9 km/h 6.1 km/h 92 % 0 mm
07:59 10.8 °C 9.4 °C 1018.2 hPa North 13 km/h 7.6 km/h 91 % 0 mm
08:04 11 °C 9.6 °C 1018.2 hPa South 13 km/h 6.4 km/h 91 % 0 mm
08:09 11.1 °C 9.6 °C 1018.2 hPa South 9.3 km/h 7.7 km/h 90 % 0 mm
08:14 11.3 °C 9.7 °C 1018.5 hPa South 14.5 km/h 6.8 km/h 90 % 0 mm
08:19 11.4 °C 9.7 °C 1018.5 hPa South 18.5 km/h 7.7 km/h 89 % 0 mm
08:24 11.6 °C 9.8 °C 1018.5 hPa South 16.7 km/h 9.8 km/h 89 % 0 mm
08:29 11.8 °C 9.9 °C 1018.5 hPa South 13 km/h 10.1 km/h 88 % 0 mm
08:34 12.1 °C 10 °C 1018.8 hPa South 6.4 km/h 5.1 km/h 87 % 0 mm
08:39 12.3 °C 10.1 °C 1018.8 hPa South 13 km/h 6.9 km/h 86 % 0 mm
08:42 12.4 °C 10 °C 1018.8 hPa South 13 km/h 5.6 km/h 85 % 0 mm
08:54 13.1 °C 9.7 °C 1018.8 hPa SSW 13 km/h 14.8 km/h 80 % 0 mm
08:59 13.4 °C 9.4 °C 1018.8 hPa SSW 19.3 km/h 14.5 km/h 77 % 0 mm
09:04 13.7 °C 9.4 °C 1018.8 hPa South 19.3 km/h 8.9 km/h 75 % 0 mm
09:09 13.9 °C 9 °C 1018.8 hPa South 25.9 km/h 14.6 km/h 72 % 0 mm
09:14 14.1 °C 8.7 °C 1018.8 hPa SSW 29.6 km/h 15.6 km/h 70 % 0 mm
09:19 14.3 °C 8.9 °C 1018.8 hPa SSE 24.1 km/h 13.5 km/h 70 % 0 mm
09:24 14.4 °C 8.8 °C 1019.2 hPa South 25.9 km/h 14 km/h 69 % 0 mm
09:29 14.4 °C 8.8 °C 1019.2 hPa South 27.8 km/h 17.7 km/h 69 % 0 mm
09:34 14.5 °C 8.7 °C 1019.2 hPa South 31.5 km/h 21.6 km/h 68 % 0 mm
09:39 14.4 °C 8.8 °C 1019.2 hPa South 18.5 km/h 12.9 km/h 69 % 0 mm
09:44 14.7 °C 9.1 °C 1019.2 hPa SSE 24.1 km/h 10.8 km/h 69 % 0 mm
09:49 14.8 °C 8.9 °C 1019.2 hPa SSE 22.2 km/h 12.4 km/h 68 % 0 mm
09:54 15 °C 9.1 °C 1019.2 hPa South 24.1 km/h 16.7 km/h 68 % 0 mm
09:59 15.2 °C 9.5 °C 1019.2 hPa South 18.5 km/h 13.2 km/h 69 % 0 mm
10:04 15.1 °C 8.9 °C 1019.5 hPa South 27.8 km/h 12.6 km/h 67 % 0 mm
10:09 15.1 °C 9 °C 1019.5 hPa South 31.5 km/h 12.9 km/h 67 % 0 mm
10:14 15.6 °C 9.7 °C 1019.2 hPa SSE 20.4 km/h 11.9 km/h 68 % 0 mm
10:19 15.7 °C 9.4 °C 1019.5 hPa SSE 27.8 km/h 19.3 km/h 66 % 0 mm
10:24 15.8 °C 9.4 °C 1019.5 hPa SSW 29 km/h 13.4 km/h 66 % 0 mm
10:29 15.7 °C 9.4 °C 1019.5 hPa SE 27.8 km/h 17.9 km/h 66 % 0 mm
10:34 16.1 °C 9.8 °C 1019.5 hPa South 19.3 km/h 9.8 km/h 66 % 0 mm
10:39 15.7 °C 9.2 °C 1019.9 hPa South 24.1 km/h 22.4 km/h 65 % 0 mm
10:44 15.4 °C 9.3 °C 1019.5 hPa SSW 18.5 km/h 13.2 km/h 67 % 0 mm
10:49 15.9 °C 9.8 °C 1019.9 hPa South 22.2 km/h 16.4 km/h 67 % 0 mm
10:54 16.4 °C 9.6 °C 1019.9 hPa SSW 29 km/h 19 km/h 64 % 0 mm
10:59 16.1 °C 9.3 °C 1019.9 hPa SSW 30.6 km/h 20.1 km/h 64 % 0 mm
11:04 16 °C 9.2 °C 1019.9 hPa South 31.5 km/h 20 km/h 64 % 0 mm
11:09 16 °C 9.2 °C 1019.9 hPa South 25.7 km/h 21.2 km/h 64 % 0 mm
11:14 16.4 °C 9.1 °C 1019.9 hPa SSW 29.6 km/h 17.5 km/h 62 % 0 mm
11:19 16.8 °C 9.4 °C 1019.9 hPa SE 29.6 km/h 19.2 km/h 62 % 0 mm
11:24 16.9 °C 9.4 °C 1019.9 hPa South 25.9 km/h 14.5 km/h 61 % 0 mm
11:29 17.1 °C 9.1 °C 1019.9 hPa South 27.4 km/h 16.1 km/h 59 % 0 mm
11:34 17.3 °C 8.9 °C 1019.9 hPa South 20.9 km/h 17.1 km/h 58 % 0 mm
11:39 17.4 °C 9.1 °C 1019.9 hPa SE 24.1 km/h 17.5 km/h 58 % 0 mm
11:44 17.8 °C 9.4 °C 1019.9 hPa South 18.5 km/h 13.2 km/h 58 % 0 mm
11:49 17.8 °C 9.2 °C 1019.9 hPa South 22.2 km/h 13.5 km/h 57 % 0 mm
11:54 17.8 °C 8.7 °C 1019.9 hPa South 18.5 km/h 15 km/h 55 % 0 mm
11:59 18.2 °C 9 °C 1019.9 hPa South 18.5 km/h 12.2 km/h 55 % 0 mm
12:04 18.2 °C 9 °C 1019.9 hPa SSW 20.4 km/h 14.2 km/h 55 % 0 mm
12:09 18.2 °C 9 °C 1019.5 hPa SSE 20.4 km/h 11.1 km/h 55 % 0 mm
12:14 18.7 °C 8.9 °C 1019.5 hPa South 22.2 km/h 10.5 km/h 53 % 0 mm
12:19 18.8 °C 8.8 °C 1019.5 hPa SSW 18.5 km/h 15.3 km/h 52 % 0 mm
12:24 18.9 °C 9.1 °C 1019.5 hPa South 20.9 km/h 17.4 km/h 53 % 0 mm
12:29 18.9 °C 8.8 °C 1019.5 hPa SSE 27.8 km/h 18 km/h 52 % 0 mm
12:34 18.9 °C 8.8 °C 1019.5 hPa SSW 17.7 km/h 13.4 km/h 52 % 0 mm
12:39 19.3 °C 8.9 °C 1019.5 hPa South 18.5 km/h 14 km/h 51 % 0 mm
12:44 19.4 °C 8.7 °C 1019.5 hPa South 31.5 km/h 19.2 km/h 50 % 0 mm
12:49 19.2 °C 8.8 °C 1019.5 hPa South 22.5 km/h 14.8 km/h 51 % 0 mm
12:54 19.1 °C 8.4 °C 1019.5 hPa SSE 18.5 km/h 14.5 km/h 50 % 0 mm
12:59 19.6 °C 8.6 °C 1019.5 hPa South 18.5 km/h 15.4 km/h 49 % 0 mm
13:04 19.6 °C 8.6 °C 1019.5 hPa South 16.7 km/h 9.8 km/h 49 % 0 mm
13:09 19.8 °C 8.5 °C 1019.5 hPa SSE 22.2 km/h 18.2 km/h 48 % 0 mm
13:14 19.9 °C 8.6 °C 1019.2 hPa South 18.5 km/h 14 km/h 48 % 0 mm
13:19 20.1 °C 8.4 °C 1019.2 hPa South 29.6 km/h 17.2 km/h 47 % 0 mm
13:24 19.9 °C 7.9 °C 1019.2 hPa SSE 20.4 km/h 12.4 km/h 46 % 0 mm
13:29 20.3 °C 8.6 °C 1019.2 hPa SSW 27.8 km/h 18.3 km/h 47 % 0 mm
13:34 20.1 °C 8.4 °C 1019.2 hPa SSW 24.1 km/h 18.2 km/h 47 % 0 mm
13:39 20.5 °C 8.5 °C 1019.2 hPa SSW 29 km/h 21.9 km/h 46 % 0 mm
13:44 20.7 °C 8.6 °C 1019.2 hPa South 22.5 km/h 17.1 km/h 46 % 0 mm
13:49 20.7 °C 8.7 °C 1019.2 hPa South 22.2 km/h 19 km/h 46 % 0 mm
13:54 20.8 °C 8.7 °C 1019.2 hPa SSW 24.1 km/h 14.6 km/h 46 % 0 mm
13:59 20.7 °C 8.7 °C 1018.8 hPa SW 29.6 km/h 17.9 km/h 46 % 0 mm
14:04 20.7 °C 8.9 °C 1018.8 hPa SW 18.5 km/h 19.5 km/h 47 % 0 mm
14:09 21 °C 8.9 °C 1018.8 hPa South 18.5 km/h 15.6 km/h 46 % 0 mm
14:14 21.3 °C 8.8 °C 1018.8 hPa SSW 27.8 km/h 15.4 km/h 45 % 0 mm
14:19 21.2 °C 9.1 °C 1019.2 hPa SSE 22.2 km/h 16.6 km/h 46 % 0 mm
14:24 20.9 °C 8.9 °C 1018.8 hPa SSW 20.4 km/h 15.3 km/h 46 % 0 mm
14:29 21.3 °C 9.6 °C 1019.2 hPa South 18.5 km/h 14.3 km/h 47 % 0 mm
14:34 21.5 °C 9.1 °C 1018.8 hPa SSE 18.5 km/h 14.3 km/h 45 % 0 mm
14:39 21.3 °C 9.6 °C 1019.2 hPa South 16.7 km/h 8.4 km/h 47 % 0 mm
14:44 21.6 °C 9.5 °C 1019.2 hPa SSE 25.9 km/h 20.8 km/h 46 % 0 mm
14:49 21.8 °C 9.7 °C 1019.2 hPa SSE 27.4 km/h 20.1 km/h 46 % 0 mm
14:54 21.5 °C 9.4 °C 1019.2 hPa SSW 20.9 km/h 21.9 km/h 46 % 0 mm
14:59 21.2 °C 9.4 °C 1018.8 hPa South 24.1 km/h 15.3 km/h 47 % 0 mm
15:04 21.2 °C 9.4 °C 1019.2 hPa SSW 29.6 km/h 20 km/h 47 % 0 mm
15:09 21.3 °C 9.8 °C 1018.8 hPa South 25.9 km/h 17.9 km/h 48 % 0 mm
15:14 21.3 °C 9.9 °C 1018.8 hPa South 18.5 km/h 9.2 km/h 48 % 0 mm
15:19 21.9 °C 10.4 °C 1018.8 hPa South 22.2 km/h 19.3 km/h 48 % 0 mm
15:24 21.9 °C 10.4 °C 1018.8 hPa South 29.6 km/h 15.1 km/h 48 % 0 mm
15:29 21.7 °C 10.2 °C 1018.8 hPa South 22.2 km/h 16.1 km/h 48 % 0 mm
15:34 21.4 °C 10 °C 1018.8 hPa SSW 24.1 km/h 17.7 km/h 48 % 0 mm
15:39 21.4 °C 9.9 °C 1018.8 hPa SE 20.4 km/h 17.5 km/h 48 % 0 mm
15:44 21.5 °C 9.7 °C 1018.8 hPa South 18.5 km/h 14.2 km/h 47 % 0 mm
15:49 21.6 °C 9.8 °C 1018.5 hPa South 29.6 km/h 15.1 km/h 47 % 0 mm
15:54 21.9 °C 9.7 °C 1018.5 hPa South 22.2 km/h 15.4 km/h 46 % 0 mm
15:59 21.9 °C 9.7 °C 1018.5 hPa South 25.9 km/h 20.3 km/h 46 % 0 mm
16:04 21.8 °C 10.3 °C 1018.5 hPa SE 29.6 km/h 15.1 km/h 48 % 0 mm
16:09 21.9 °C 9.8 °C 1018.5 hPa SSW 16.1 km/h 13.2 km/h 46 % 0 mm
16:14 21.9 °C 9.8 °C 1018.5 hPa South 29.6 km/h 23.2 km/h 46 % 0 mm
16:19 21.8 °C 9.7 °C 1018.5 hPa SSE 16.7 km/h 11.3 km/h 46 % 0 mm
16:24 21.9 °C 9.4 °C 1018.5 hPa South 19.3 km/h 14.3 km/h 45 % 0 mm
16:29 22.1 °C 9.6 °C 1018.2 hPa SSE 20.4 km/h 10.3 km/h 45 % 0 mm
16:34 22 °C 9.5 °C 1018.2 hPa SSE 24.1 km/h 11.1 km/h 45 % 0 mm
16:39 22 °C 9.5 °C 1018.2 hPa SSW 31.5 km/h 20.1 km/h 45 % 0 mm
16:44 21.8 °C 9.4 °C 1018.5 hPa SSE 18.5 km/h 13.4 km/h 45 % 0 mm
16:49 21.9 °C 9.1 °C 1018.5 hPa South 20.4 km/h 18 km/h 44 % 0 mm
16:54 21.7 °C 8.9 °C 1018.2 hPa South 24.1 km/h 14.6 km/h 44 % 0 mm
16:59 22 °C 9.2 °C 1018.2 hPa SSW 20.9 km/h 15.1 km/h 44 % 0 mm
17:04 22 °C 9.2 °C 1018.2 hPa South 22.2 km/h 16.6 km/h 44 % 0 mm
17:09 22 °C 8.8 °C 1018.2 hPa SSW 20.4 km/h 17.5 km/h 43 % 0 mm
17:14 21.9 °C 9.1 °C 1018.5 hPa South 24.1 km/h 17.2 km/h 44 % 0 mm
17:19 22.2 °C 9.7 °C 1018.5 hPa SSE 24.1 km/h 20.6 km/h 45 % 0 mm
17:24 22 °C 9.2 °C 1018.5 hPa SSE 19.3 km/h 13.4 km/h 44 % 0 mm
17:29 22 °C 8.8 °C 1018.5 hPa South 27.8 km/h 18.3 km/h 43 % 0 mm
17:34 21.9 °C 9.4 °C 1018.5 hPa SSE 22.5 km/h 14.6 km/h 45 % 0 mm
17:39 21.9 °C 9.1 °C 1018.5 hPa SSE 27.8 km/h 15.8 km/h 44 % 0 mm
17:44 22.1 °C 9.3 °C 1018.5 hPa South 18.5 km/h 14.5 km/h 44 % 0 mm
17:49 21.8 °C 9 °C 1018.5 hPa SSW 29.6 km/h 17.2 km/h 44 % 0 mm
17:54 21.7 °C 9.2 °C 1018.5 hPa South 18.5 km/h 9.8 km/h 45 % 0 mm
17:59 21.9 °C 9.4 °C 1018.5 hPa South 20.4 km/h 15.8 km/h 45 % 0 mm
18:04 21.7 °C 9.2 °C 1018.5 hPa South 24.1 km/h 16.3 km/h 45 % 0 mm
18:09 21.5 °C 9.4 °C 1018.5 hPa South 18.5 km/h 13.2 km/h 46 % 0 mm
18:14 21.7 °C 9.6 °C 1018.5 hPa SE 22.2 km/h 10.9 km/h 46 % 0 mm
18:19 21.6 °C 9.5 °C 1018.5 hPa SSW 27.8 km/h 13.7 km/h 46 % 0 mm
18:24 21.3 °C 9.6 °C 1018.5 hPa South 22.5 km/h 15.4 km/h 47 % 0 mm
18:29 21.1 °C 9.3 °C 1018.5 hPa South 24.1 km/h 9.3 km/h 47 % 0 mm
18:34 20.9 °C 9.5 °C 1018.8 hPa SSE 18.5 km/h 15.8 km/h 48 % 0 mm
18:39 20.8 °C 9.4 °C 1018.8 hPa SSE 16.7 km/h 9.8 km/h 48 % 0 mm
18:44 20.8 °C 9.7 °C 1018.8 hPa SSE 20.4 km/h 10.8 km/h 49 % 0 mm
18:49 20.8 °C 9.4 °C 1018.8 hPa South 16.7 km/h 10.1 km/h 48 % 0 mm
18:54 20.7 °C 9.3 °C 1018.8 hPa SSE 17.7 km/h 13.5 km/h 48 % 0 mm
18:59 20.6 °C 9.4 °C 1018.8 hPa SSE 22.5 km/h 13.5 km/h 49 % 0 mm
19:04 20.3 °C 9.3 °C 1018.8 hPa SSE 16.7 km/h 12.9 km/h 49 % 0 mm
19:09 20.2 °C 9.1 °C 1018.8 hPa South 18.5 km/h 12.2 km/h 49 % 0 mm
19:14 20.1 °C 9 °C 1018.8 hPa South 22.2 km/h 13.2 km/h 49 % 0 mm
19:19 19.9 °C 9.2 °C 1018.8 hPa South 19.3 km/h 11.9 km/h 50 % 0 mm
19:24 19.7 °C 9.3 °C 1019.2 hPa South 18.5 km/h 11.4 km/h 51 % 0 mm
19:29 19.6 °C 9.2 °C 1019.2 hPa South 20.4 km/h 11.9 km/h 51 % 0 mm
19:34 19.5 °C 9.4 °C 1019.2 hPa SSW 20.4 km/h 14.6 km/h 52 % 0 mm
19:39 19.4 °C 9.3 °C 1019.2 hPa South 18.5 km/h 12.6 km/h 52 % 0 mm
19:44 19.3 °C 9.2 °C 1019.2 hPa South 22.2 km/h 16.6 km/h 52 % 0 mm
19:49 19.2 °C 9.3 °C 1019.2 hPa SSE 14.8 km/h 11.7 km/h 53 % 0 mm
19:54 19 °C 9.2 °C 1019.5 hPa South 18.5 km/h 15 km/h 53 % 0 mm
19:59 18.8 °C 9.3 °C 1019.5 hPa South 20.4 km/h 11.9 km/h 54 % 0 mm
20:04 18.6 °C 9.1 °C 1019.5 hPa South 19.3 km/h 10 km/h 54 % 0 mm
20:09 18.4 °C 9.2 °C 1019.5 hPa South 16.7 km/h 9.2 km/h 55 % 0 mm
20:14 18.2 °C 9 °C 1019.5 hPa South 18.5 km/h 12.9 km/h 55 % 0 mm
20:19 18.1 °C 9.1 °C 1019.5 hPa South 14.8 km/h 10.1 km/h 56 % 0 mm
20:24 17.9 °C 9 °C 1019.5 hPa South 18.5 km/h 10.3 km/h 56 % 0 mm
20:29 17.7 °C 8.8 °C 1019.5 hPa SSE 18.5 km/h 15.4 km/h 56 % 0 mm
20:34 17.6 °C 9 °C 1019.5 hPa South 20.4 km/h 11.6 km/h 57 % 0 mm
20:39 17.4 °C 8.8 °C 1019.5 hPa South 18.5 km/h 10.8 km/h 57 % 0 mm
20:44 17.3 °C 8.7 °C 1019.9 hPa South 18.5 km/h 10.9 km/h 57 % 0 mm
20:49 17.2 °C 8.8 °C 1019.9 hPa South 18.5 km/h 13.4 km/h 58 % 0 mm
20:54 17 °C 8.7 °C 1019.9 hPa South 18.5 km/h 10.3 km/h 58 % 0 mm
20:59 16.8 °C 8.8 °C 1019.9 hPa South 16.7 km/h 11.7 km/h 59 % 0 mm
21:04 16.7 °C 8.9 °C 1020.2 hPa South 20.4 km/h 12.9 km/h 60 % 0 mm
21:09 16.5 °C 8.9 °C 1020.2 hPa South 18.5 km/h 10.3 km/h 61 % 0 mm
21:14 16.3 °C 8.7 °C 1020.2 hPa South 13 km/h 7.9 km/h 61 % 0 mm
21:19 16.1 °C 8.8 °C 1020.2 hPa South 18.5 km/h 15.3 km/h 62 % 0 mm
21:24 16 °C 8.9 °C 1020.5 hPa South 16.7 km/h 12.7 km/h 63 % 0 mm
21:29 15.8 °C 9 °C 1020.5 hPa South 18.5 km/h 7.9 km/h 64 % 0 mm
21:34 15.6 °C 9.1 °C 1020.5 hPa South 20.4 km/h 13.8 km/h 65 % 0 mm
21:39 15.4 °C 9.3 °C 1020.5 hPa South 16.7 km/h 12.4 km/h 67 % 0 mm
21:44 15.2 °C 9.3 °C 1020.5 hPa South 14.8 km/h 9.5 km/h 68 % 0 mm
21:49 15.1 °C 9.4 °C 1020.5 hPa South 11.1 km/h 10 km/h 69 % 0 mm
21:54 14.9 °C 9.3 °C 1020.5 hPa South 16.7 km/h 11.6 km/h 69 % 0 mm
21:59 14.8 °C 9.3 °C 1020.5 hPa South 18.5 km/h 8.5 km/h 70 % 0 mm
22:04 14.6 °C 9.4 °C 1020.9 hPa South 9.7 km/h 10.8 km/h 71 % 0 mm
22:09 14.5 °C 9.5 °C 1020.5 hPa South 18.5 km/h 12.9 km/h 72 % 0 mm
22:14 14.3 °C 9.6 °C 1020.9 hPa SSE 18.5 km/h 7.6 km/h 73 % 0 mm
22:19 14.2 °C 9.4 °C 1020.9 hPa SSE 22.2 km/h 11.4 km/h 73 % 0 mm
22:24 14.1 °C 9.6 °C 1020.9 hPa South 18.5 km/h 13.4 km/h 74 % 0 mm
22:29 14 °C 9.4 °C 1020.9 hPa South 22.2 km/h 11.9 km/h 74 % 0 mm
22:34 13.9 °C 9.6 °C 1020.9 hPa South 17.7 km/h 7.7 km/h 75 % 0 mm
22:39 13.7 °C 9.6 °C 1020.9 hPa South 14.8 km/h 9.7 km/h 76 % 0 mm
22:44 13.6 °C 9.4 °C 1021.2 hPa South 25.9 km/h 12.6 km/h 76 % 0 mm
22:49 13.5 °C 9.6 °C 1021.2 hPa SSE 18.5 km/h 11.3 km/h 77 % 0 mm
22:54 13.4 °C 9.4 °C 1021.2 hPa South 18.5 km/h 10.9 km/h 77 % 0 mm
22:59 13.3 °C 9.5 °C 1020.9 hPa South 11.3 km/h 9.8 km/h 78 % 0 mm
23:04 13.2 °C 9.4 °C 1020.9 hPa South 18.5 km/h 10.8 km/h 78 % 0 mm
23:09 13.1 °C 9.6 °C 1020.9 hPa South 14.8 km/h 12.2 km/h 79 % 0 mm
23:14 13 °C 9.4 °C 1020.9 hPa South 18.5 km/h 8.5 km/h 79 % 0 mm
23:19 12.9 °C 9.3 °C 1020.9 hPa South 13 km/h 9 km/h 79 % 0 mm
23:24 12.8 °C 9.4 °C 1020.9 hPa South 16.7 km/h 11.1 km/h 80 % 0 mm
23:29 12.8 °C 9.4 °C 1020.9 hPa South 14.5 km/h 8 km/h 80 % 0 mm
23:34 12.7 °C 9.3 °C 1020.9 hPa South 13 km/h 10 km/h 80 % 0 mm
23:39 12.6 °C 9.4 °C 1020.5 hPa South 18.5 km/h 9 km/h 81 % 0 mm
23:44 12.6 °C 9.4 °C 1020.5 hPa South 16.7 km/h 11.9 km/h 81 % 0 mm
23:49 12.5 °C 9.3 °C 1020.5 hPa South 18.5 km/h 9.7 km/h 81 % 0 mm
23:54 12.4 °C 9.3 °C 1020.5 hPa South 14.5 km/h 8.7 km/h 81 % 0 mm
23:59 12.4 °C 9.2 °C 1020.5 hPa South 11.3 km/h 7.7 km/h 81 % 0 mm
Ararat Weather
Compliments of Weather Underground - 2.5 mb
Click here to send mail.


ABOUT

Live weather data from Ararat, Victoria, Australia, 3377
Data uploaded from Cumulus every 5 minutes to Weather Underground.
This site then downloads the raw data for formatting and display.
Metric and imperial data can be displayed. Graphs and historical data available.
Includes Sun and Moon times and rain image live from BOM.

Check out Ararat Weather on Facebook, Twitter and Google +

Help support ongoing costs by checking out the ads





Follow @AraratWeather